Time;durP1;ratioP1;P1;durP2;ratioP2;P2;SDS_P1;SDS_P2;PMS_P1;PMS_P2;Temp;Humidity;BMP_temperature;BMP_pressure;BME280_temperature;BME280_humidity;BME280_pressure;Samples;Min_cycle;Max_cycle;Signal;HPM_P1;HPM_P2
2023/08/29 00:02:43;;;;;;;;;;;;;;;12.23;100.00;101322.00;4937916;28;19953;-80
2023/08/29 00:05:28;;;;;;;;;;;;;;;12.22;100.00;101326.41;4935324;28;20016;-80
2023/08/29 00:08:15;;;;;;;;;;;;;;;12.20;100.00;101319.50;4941406;28;19941;-80
2023/08/29 00:11:04;;;;;;;;;;;;;;;12.19;100.00;101309.78;4934451;28;19935;-80
2023/08/29 00:13:52;;;;;;;;;;;;;;;12.18;100.00;101313.38;4936866;28;19930;-80
2023/08/29 00:16:38;;;;;;;;;;;;;;;12.18;100.00;101308.94;4940520;28;19965;-79
2023/08/29 00:19:23;;;;;;;;;;;;;;;12.17;100.00;101290.41;4938399;28;19930;-80
2023/08/29 00:22:10;;;;;;;;;;;;;;;12.17;100.00;101295.72;4926481;28;19983;-80
2023/08/29 00:24:56;;;;;;;;;;;;;;;12.17;100.00;101295.72;4938871;28;19930;-80
2023/08/29 00:27:42;;;;;;;;;;;;;;;12.15;100.00;101305.56;4928468;28;19930;-79
2023/08/29 00:30:27;;;;;;;;;;;;;;;12.14;100.00;101312.63;4965380;28;19926;-79
2023/08/29 00:33:13;;;;;;;;;;;;;;;12.13;100.00;101304.75;4936969;28;19937;-79
2023/08/29 00:35:59;;;;;;;;;;;;;;;12.11;100.00;101301.28;4928186;28;19966;-79
2023/08/29 00:38:45;;;;;;;;;;;;;;;12.08;100.00;101303.16;4930108;28;20404;-80
2023/08/29 00:41:30;;;;;;;;;;;;;;;12.06;100.00;101297.06;4938485;28;20336;-80
2023/08/29 00:44:16;;;;;;;;;;;;;;;12.04;100.00;101285.66;4925203;28;20047;-80
2023/08/29 00:47:03;;;;;;;;;;;;;;;12.02;100.00;101289.25;4926107;28;19930;-80
2023/08/29 00:49:49;;;;;;;;;;;;;;;12.01;100.00;101291.06;4940503;28;19926;-80
2023/08/29 00:52:35;;;;;;;;;;;;;;;12.00;100.00;101278.75;4931193;28;19973;-80
2023/08/29 00:55:21;;;;;;;;;;;;;;;11.99;100.00;101281.44;4938823;28;19934;-80
2023/08/29 00:58:06;;;;;;;;;;;;;;;11.97;100.00;101275.38;4942952;28;20267;-80
2023/08/29 01:00:52;;;;;;;;;;;;;;;11.96;100.00;101271.84;4943110;28;20034;-80
2023/08/29 01:03:39;;;;;;;;;;;;;;;11.93;100.00;101266.69;4944661;28;19922;-80
2023/08/29 01:06:24;;;;;;;;;;;;;;;11.92;100.00;101268.47;4942287;28;19934;-80
2023/08/29 01:09:10;;;;;;;;;;;;;;;11.91;100.00;101273.81;4945871;28;19930;-80
2023/08/29 01:12:16;;;;;;;;;;;;;;;11.89;100.00;101276.56;4975734;28;20401;-80
2023/08/29 01:15:12;;;;;;;;;;;;;;;11.88;100.00;101269.50;4948615;28;19984;-80
2023/08/29 01:18:02;;;;;;;;;;;;;;;11.87;100.00;101267.78;4968195;28;19925;-79
2023/08/29 01:20:48;;;;;;;;;;;;;;;11.85;100.00;101268.78;4952235;28;19929;-80
2023/08/29 01:23:42;;;;;;;;;;;;;;;11.83;100.00;101263.56;4958871;28;20013;-79
2023/08/29 01:26:28;;;;;;;;;;;;;;;11.81;100.00;101258.31;4960427;28;19944;-79
2023/08/29 01:29:14;;;;;;;;;;;;;;;11.79;100.00;101248.69;4952206;28;20031;-80
2023/08/29 01:31:59;;;;;;;;;;;;;;;11.77;100.00;101248.75;4960238;28;19933;-79
2023/08/29 01:34:45;;;;;;;;;;;;;;;11.76;100.00;101246.19;4939429;28;20282;-80
2023/08/29 01:37:31;;;;;;;;;;;;;;;11.76;100.00;101254.16;4960064;28;19930;-80
2023/08/29 01:40:16;;;;;;;;;;;;;;;11.74;100.00;101251.56;4964033;28;19983;-80
2023/08/29 01:43:02;;;;;;;;;;;;;;;11.75;100.00;101255.94;4961443;28;20021;-80
2023/08/29 01:45:48;;;;;;;;;;;;;;;11.75;100.00;101242.66;4959776;28;19940;-80
2023/08/29 01:48:33;;;;;;;;;;;;;;;11.74;100.00;101251.56;4949968;28;20400;-80
2023/08/29 01:51:19;;;;;;;;;;;;;;;11.75;100.00;101258.59;4959765;28;22040;-80
2023/08/29 01:54:05;;;;;;;;;;;;;;;11.72;100.00;101264.00;4961010;28;19979;-79
2023/08/29 01:56:50;;;;;;;;;;;;;;;11.70;100.00;101263.22;4961157;28;19934;-79
2023/08/29 01:59:36;;;;;;;;;;;;;;;11.70;100.00;101271.19;4958972;28;19930;-80
2023/08/29 02:02:21;;;;;;;;;;;;;;;11.67;100.00;101260.72;4960942;28;19926;-80
2023/08/29 02:05:07;;;;;;;;;;;;;;;11.66;100.00;101261.66;4947262;28;20023;-79
2023/08/29 02:07:53;;;;;;;;;;;;;;;11.66;100.00;101259.00;4957548;28;19926;-79
2023/08/29 02:10:38;;;;;;;;;;;;;;;11.64;100.00;101247.56;4961295;28;19998;-79
2023/08/29 02:13:24;;;;;;;;;;;;;;;11.60;100.00;101248.66;4956723;28;20029;-79
2023/08/29 02:16:10;;;;;;;;;;;;;;;11.59;100.00;101262.84;4964173;28;19962;-79
2023/08/29 02:18:55;;;;;;;;;;;;;;;11.57;100.00;101267.34;4935953;28;19924;-80
2023/08/29 02:21:41;;;;;;;;;;;;;;;11.55;100.00;101259.44;4965740;28;19926;-80
2023/08/29 02:24:27;;;;;;;;;;;;;;;11.54;100.00;101260.38;4956632;28;19957;-79
2023/08/29 02:27:13;;;;;;;;;;;;;;;11.52;100.00;101262.22;4946397;28;19933;-80
2023/08/29 02:29:59;;;;;;;;;;;;;;;11.48;100.00;101258.84;4964616;27;19925;-80
2023/08/29 02:32:45;;;;;;;;;;;;;;;11.47;100.00;101267.75;4952785;28;19925;-79
2023/08/29 02:35:31;;;;;;;;;;;;;;;11.46;100.00;101267.78;4981850;28;19934;-80
2023/08/29 02:38:16;;;;;;;;;;;;;;;11.47;100.00;101257.13;4953329;28;20150;-79
2023/08/29 02:41:02;;;;;;;;;;;;;;;11.46;100.00;101260.72;4959580;28;19936;-79
2023/08/29 02:43:48;;;;;;;;;;;;;;;11.44;100.00;101259.06;4960889;28;19945;-79
2023/08/29 02:46:36;;;;;;;;;;;;;;;11.37;100.00;101266.38;4958188;28;19941;-80
2023/08/29 02:49:21;;;;;;;;;;;;;;;11.28;100.00;101268.50;4950858;28;19933;-79
2023/08/29 02:52:07;;;;;;;;;;;;;;;11.24;100.00;101268.69;4962151;28;20426;-80
2023/08/29 02:54:52;;;;;;;;;;;;;;;11.19;100.00;101263.59;4961253;28;19930;-79
2023/08/29 02:57:38;;;;;;;;;;;;;;;11.16;100.00;101266.34;4948642;28;19934;-79
2023/08/29 03:00:24;;;;;;;;;;;;;;;11.13;100.00;101266.50;4948891;28;19980;-80
2023/08/29 03:03:10;;;;;;;;;;;;;;;11.13;100.00;101267.34;4955767;28;19977;-79
2023/08/29 03:05:56;;;;;;;;;;;;;;;11.12;100.00;101270.06;4963812;28;19930;-79
2023/08/29 03:08:41;;;;;;;;;;;;;;;11.12;100.00;101268.28;4947165;28;19945;-80
2023/08/29 03:11:27;;;;;;;;;;;;;;;11.08;100.00;101260.53;4964635;28;19942;-79
2023/08/29 03:14:13;;;;;;;;;;;;;;;11.05;100.00;101258.84;4961563;28;20338;-79
2023/08/29 03:16:59;;;;;;;;;;;;;;;11.01;100.00;101259.91;4927779;28;20388;-79
2023/08/29 03:19:46;;;;;;;;;;;;;;;10.97;100.00;101267.13;4958247;28;19977;-79
2023/08/29 03:22:31;;;;;;;;;;;;;;;10.95;100.00;101276.06;4955104;28;19936;-79
2023/08/29 03:25:18;;;;;;;;;;;;;;;10.92;100.00;101281.47;4964734;28;19991;-79
2023/08/29 03:28:04;;;;;;;;;;;;;;;10.90;100.00;101285.97;4961967;28;20000;-79
2023/08/29 03:30:50;;;;;;;;;;;;;;;10.90;100.00;101291.28;4931888;28;19940;-79
2023/08/29 03:33:36;;;;;;;;;;;;;;;10.89;100.00;101298.34;4953570;28;19937;-79
2023/08/29 03:36:21;;;;;;;;;;;;;;;10.89;100.00;101298.34;4961737;28;19933;-79
2023/08/29 03:39:07;;;;;;;;;;;;;;;10.89;100.00;101298.34;4965776;28;19926;-79
2023/08/29 03:41:55;;;;;;;;;;;;;;;10.88;100.00;101293.13;4959659;28;20308;-79
2023/08/29 03:44:41;;;;;;;;;;;;;;;10.88;100.00;101293.13;4946187;28;20490;-79
2023/08/29 03:47:27;;;;;;;;;;;;;;;10.86;100.00;101294.03;4962650;28;20174;-79
2023/08/29 03:50:12;;;;;;;;;;;;;;;10.88;100.00;101293.13;4963793;28;19939;-79
2023/08/29 03:52:58;;;;;;;;;;;;;;;10.89;100.00;101301.00;4944117;28;19942;-79
2023/08/29 03:55:44;;;;;;;;;;;;;;;10.91;100.00;101293.00;4949924;28;19937;-79
2023/08/29 03:58:30;;;;;;;;;;;;;;;10.92;100.00;101295.59;4938069;28;19932;-80
2023/08/29 04:01:19;;;;;;;;;;;;;;;10.96;100.00;101296.31;4950770;28;19930;-79
2023/08/29 04:04:05;;;;;;;;;;;;;;;10.98;100.00;101292.69;4939309;28;19969;-80
2023/08/29 04:06:50;;;;;;;;;;;;;;;11.05;100.00;101289.81;4961259;28;19929;-80
2023/08/29 04:09:36;;;;;;;;;;;;;;;11.12;100.00;101291.28;4943510;27;19926;-80
2023/08/29 04:12:22;;;;;;;;;;;;;;;11.17;100.00;101289.28;4959777;28;19941;-80
2023/08/29 04:15:08;;;;;;;;;;;;;;;11.24;100.00;101277.50;4962413;28;19934;-80
2023/08/29 04:17:53;;;;;;;;;;;;;;;11.28;100.00;101281.75;4960520;28;19980;-80
2023/08/29 04:20:40;;;;;;;;;;;;;;;11.29;100.00;101274.69;4961382;28;19936;-80
2023/08/29 04:23:25;;;;;;;;;;;;;;;11.27;100.00;101269.44;4960677;28;20316;-80
2023/08/29 04:26:11;;;;;;;;;;;;;;;11.27;100.00;101264.13;4963211;28;19941;-80
2023/08/29 04:28:57;;;;;;;;;;;;;;;11.27;100.00;101252.66;4958504;28;19952;-80
2023/08/29 04:31:43;;;;;;;;;;;;;;;11.26;100.00;101246.50;4957927;28;19957;-81
2023/08/29 04:34:29;;;;;;;;;;;;;;;11.26;100.00;101238.56;4959467;28;20083;-80
2023/08/29 04:37:15;;;;;;;;;;;;;;;11.23;100.00;101236.03;4957773;28;20020;-80
2023/08/29 04:40:01;;;;;;;;;;;;;;;11.20;100.00;101230.88;4938297;28;19934;-80
2023/08/29 04:42:47;;;;;;;;;;;;;;;11.22;100.00;101229.00;4939704;28;19926;-79
2023/08/29 04:45:33;;;;;;;;;;;;;;;11.21;100.00;101226.41;4965357;28;19992;-79
2023/08/29 04:48:18;;;;;;;;;;;;;;;11.20;100.00;101222.91;4960253;28;19929;-79
2023/08/29 04:51:04;;;;;;;;;;;;;;;11.16;100.00;101221.31;4959690;28;19937;-79
2023/08/29 04:53:50;;;;;;;;;;;;;;;11.14;100.00;101226.69;4944134;28;20033;-79
2023/08/29 04:56:35;;;;;;;;;;;;;;;11.13;100.00;101224.09;4941255;28;19998;-79
2023/08/29 04:59:21;;;;;;;;;;;;;;;11.13;100.00;101224.09;4954505;28;19938;-79
2023/08/29 05:02:08;;;;;;;;;;;;;;;11.13;100.00;101219.66;4948590;28;19929;-79
2023/08/29 05:04:53;;;;;;;;;;;;;;;11.16;100.00;101216.00;4956848;28;20411;-79
2023/08/29 05:07:40;;;;;;;;;;;;;;;11.18;100.00;101216.81;4940404;28;19934;-79
2023/08/29 05:10:25;;;;;;;;;;;;;;;11.20;100.00;101214.97;4943913;28;20387;-80
2023/08/29 05:13:11;;;;;;;;;;;;;;;11.21;100.00;101210.50;4954055;28;20313;-79
2023/08/29 05:15:57;;;;;;;;;;;;;;;11.24;100.00;101213.88;4961231;28;20385;-80
2023/08/29 05:18:42;;;;;;;;;;;;;;;11.27;100.00;101229.69;4948056;28;19929;-80
2023/08/29 05:21:28;;;;;;;;;;;;;;;11.30;100.00;101219.88;4961926;28;19930;-78
2023/08/29 05:24:14;;;;;;;;;;;;;;;11.33;100.00;101215.28;4958272;28;19934;-78
2023/08/29 05:26:59;;;;;;;;;;;;;;;11.40;100.00;101215.91;4960826;28;19930;-79
2023/08/29 05:29:45;;;;;;;;;;;;;;;11.45;100.00;101208.63;4934354;28;19922;-79
2023/08/29 05:32:31;;;;;;;;;;;;;;;11.53;100.00;101213.56;4959798;28;19984;-79
2023/08/29 05:35:17;;;;;;;;;;;;;;;11.64;100.00;101210.44;4949099;28;19941;-78
2023/08/29 05:38:02;;;;;;;;;;;;;;;11.77;100.00;101219.59;4962897;28;20017;-78
2023/08/29 05:40:50;;;;;;;;;;;;;;;11.87;100.00;101208.59;4947310;28;19958;-78
2023/08/29 05:43:36;;;;;;;;;;;;;;;11.96;100.00;101218.75;4960214;28;19936;-78
2023/08/29 05:46:22;;;;;;;;;;;;;;;12.03;100.00;101222.91;4967031;28;20017;-79
2023/08/29 05:49:08;;;;;;;;;;;;;;;12.13;100.00;101218.03;4940042;28;20017;-79
2023/08/29 05:51:53;;;;;;;;;;;;;;;12.20;100.00;101219.47;4966773;28;19941;-79
2023/08/29 05:54:43;;;;;;;;;;;;;;;12.28;100.00;101211.16;4948058;28;20017;-79
2023/08/29 05:57:29;;;;;;;;;;;;;;;12.39;100.00;101209.78;4936385;28;19948;-79
2023/08/29 06:00:15;;;;;;;;;;;;;;;12.50;100.00;101208.31;4962154;28;19936;-79
2023/08/29 06:03:03;;;;;;;;;;;;;;;12.62;100.00;101203.38;4953041;28;19934;-79
2023/08/29 06:05:49;;;;;;;;;;;;;;;12.72;100.00;101212.63;4951442;28;19930;-79
2023/08/29 06:08:35;;;;;;;;;;;;;;;12.83;100.00;101204.13;4951131;28;20142;-79
2023/08/29 06:11:21;;;;;;;;;;;;;;;12.95;100.00;101215.94;4961742;28;19987;-77
2023/08/29 06:14:06;;;;;;;;;;;;;;;13.08;100.00;101199.38;4962895;28;20429;-79
2023/08/29 06:16:52;;;;;;;;;;;;;;;13.18;100.00;101206.81;4983271;28;20028;-79
2023/08/29 06:19:38;;;;;;;;;;;;;;;13.26;100.00;101193.13;4935223;28;19934;-79
2023/08/29 06:22:24;;;;;;;;;;;;;;;13.36;100.00;101196.19;4939080;28;20358;-79
2023/08/29 06:25:10;;;;;;;;;;;;;;;13.46;100.00;101206.38;4948244;28;19929;-79
2023/08/29 06:27:55;;;;;;;;;;;;;;;13.54;100.00;101214.78;4964816;28;20296;-78
2023/08/29 06:30:41;;;;;;;;;;;;;;;13.62;100.00;101201.09;4987197;28;19952;-79
2023/08/29 06:33:27;;;;;;;;;;;;;;;13.67;100.00;101199.91;4956112;28;20018;-80
2023/08/29 06:36:12;;;;;;;;;;;;;;;13.74;100.00;101197.81;4965607;28;20292;-80
2023/08/29 06:38:58;;;;;;;;;;;;;;;13.81;100.00;101196.53;4958745;28;20007;-79
2023/08/29 06:41:43;;;;;;;;;;;;;;;13.89;100.00;101192.59;4960472;28;19926;-80
2023/08/29 06:44:30;;;;;;;;;;;;;;;13.95;100.00;101186.94;4962507;28;19969;-80
2023/08/29 06:47:15;;;;;;;;;;;;;;;14.02;100.00;101188.31;4962613;28;20295;-80
2023/08/29 06:50:01;;;;;;;;;;;;;;;14.11;100.00;101194.94;4952901;28;19984;-79
2023/08/29 06:52:47;;;;;;;;;;;;;;;14.19;100.00;101197.19;4963873;28;19932;-78
2023/08/29 06:55:34;;;;;;;;;;;;;;;14.27;100.00;101205.59;4958559;28;20330;-77
2023/08/29 06:58:20;;;;;;;;;;;;;;;14.36;100.00;101196.25;4963591;28;19926;-77
2023/08/29 07:01:06;;;;;;;;;;;;;;;14.46;100.00;101207.25;4932325;28;19974;-77
2023/08/29 07:03:52;;;;;;;;;;;;;;;14.53;100.00;101204.16;4953351;28;20632;-76
2023/08/29 07:06:39;;;;;;;;;;;;;;;14.63;100.00;101195.63;4960146;28;19929;-77
2023/08/29 07:09:27;;;;;;;;;;;;;;;14.72;100.00;101200.44;4951350;28;19930;-77
2023/08/29 07:12:12;;;;;;;;;;;;;;;14.82;100.00;101203.44;4957110;28;20024;-77
2023/08/29 07:14:58;;;;;;;;;;;;;;;14.92;100.00;101195.78;4947611;28;19934;-77
2023/08/29 07:17:44;;;;;;;;;;;;;;;15.00;100.00;101196.22;4944766;28;19936;-77
2023/08/29 07:20:30;;;;;;;;;;;;;;;15.11;100.00;101205.38;4956903;28;20016;-77
2023/08/29 07:23:16;;;;;;;;;;;;;;;15.18;100.00;101188.06;4953821;28;19934;-77
2023/08/29 07:26:02;;;;;;;;;;;;;;;15.27;100.00;101192.84;5011855;28;20044;-76
2023/08/29 07:28:47;;;;;;;;;;;;;;;15.35;100.00;101189.72;4928207;28;19966;-76
2023/08/29 07:31:33;;;;;;;;;;;;;;;15.44;100.00;101190.97;4951704;28;19930;-76
2023/08/29 07:34:18;;;;;;;;;;;;;;;15.50;100.00;101181.72;4953538;28;19952;-76
2023/08/29 07:37:04;;;;;;;;;;;;;;;15.56;100.00;101186.69;4950866;28;19934;-76
2023/08/29 07:39:50;;;;;;;;;;;;;;;15.61;100.00;101184.59;4940975;28;19941;-76
2023/08/29 07:42:35;;;;;;;;;;;;;;;15.67;100.00;101183.34;4933612;28;19930;-76
2023/08/29 07:45:21;;;;;;;;;;;;;;;15.72;100.00;101189.28;4953963;28;19929;-77
2023/08/29 07:48:14;;;;;;;;;;;;;;;15.79;100.00;101184.44;4955485;28;19934;-77
2023/08/29 07:51:00;;;;;;;;;;;;;;;15.84;100.00;101184.97;4943255;28;19928;-76
2023/08/29 07:53:45;;;;;;;;;;;;;;;15.86;100.00;101191.94;4932367;28;19937;-76
2023/08/29 07:56:31;;;;;;;;;;;;;;;15.89;100.00;101189.09;4948120;28;19929;-76
2023/08/29 07:59:20;;;;;;;;;;;;;;;15.92;100.00;101187.22;4939070;28;20423;-77
2023/08/29 08:02:06;;;;;;;;;;;;;;;15.96;100.00;101180.72;4939391;28;20027;-76
2023/08/29 08:04:51;;;;;;;;;;;;;;;15.97;100.00;101179.78;4954486;28;19933;-77
2023/08/29 08:07:38;;;;;;;;;;;;;;;15.99;100.00;101177.84;4949418;28;19933;-77
2023/08/29 08:10:24;;;;;;;;;;;;;;;16.04;100.00;101183.78;4952056;28;19932;-77
2023/08/29 08:13:09;;;;;;;;;;;;;;;16.10;100.00;101174.50;4938044;28;19970;-77
2023/08/29 08:15:55;;;;;;;;;;;;;;;16.17;100.00;101181.16;4934383;28;19937;-77
2023/08/29 08:18:41;;;;;;;;;;;;;;;16.27;100.00;101181.44;4937034;28;19930;-77
2023/08/29 08:21:26;;;;;;;;;;;;;;;16.39;100.00;101174.44;4943192;28;19973;-77
2023/08/29 08:24:12;;;;;;;;;;;;;;;16.55;100.00;101174.28;4941125;28;19933;-77
2023/08/29 08:26:58;;;;;;;;;;;;;;;16.73;100.00;101176.72;4940296;28;19956;-77
2023/08/29 08:29:43;;;;;;;;;;;;;;;16.91;100.00;101178.19;4935263;28;19933;-76
2023/08/29 08:32:29;;;;;;;;;;;;;;;17.13;100.00;101174.06;4969451;28;20087;-76
2023/08/29 08:35:15;;;;;;;;;;;;;;;17.30;100.00;101172.91;4944102;28;19945;-76
2023/08/29 08:38:01;;;;;;;;;;;;;;;17.45;100.00;101168.34;4944259;28;19945;-76
2023/08/29 08:40:47;;;;;;;;;;;;;;;17.61;100.00;101176.13;4934541;28;19934;-78
2023/08/29 08:43:33;;;;;;;;;;;;;;;17.73;100.00;101169.06;4921078;28;19970;-77
2023/08/29 08:46:19;;;;;;;;;;;;;;;17.82;100.00;101174.72;4937913;28;20024;-78
2023/08/29 08:49:04;;;;;;;;;;;;;;;17.82;100.00;101169.38;4942311;28;20024;-79
2023/08/29 08:51:50;;;;;;;;;;;;;;;17.89;100.00;101166.16;4929488;28;19930;-79
2023/08/29 08:54:35;;;;;;;;;;;;;;;17.96;100.00;101161.19;4940707;28;20494;-79
2023/08/29 08:57:21;;;;;;;;;;;;;;;18.04;100.00;101163.34;4931861;28;20794;-78
2023/08/29 09:00:07;;;;;;;;;;;;;;;18.12;100.00;101170.84;4942147;28;19930;-79
2023/08/29 09:02:53;;;;;;;;;;;;;;;18.16;100.00;101161.63;4926330;28;19937;-78
2023/08/29 09:05:39;;;;;;;;;;;;;;;18.18;100.00;101176.63;4916048;28;20065;-78
2023/08/29 09:08:24;;;;;;;;;;;;;;;18.16;100.00;101175.88;4925624;28;20442;-77
2023/08/29 09:11:10;;;;;;;;;;;;;;;18.12;100.00;101170.84;4937559;28;21516;-78
2023/08/29 09:13:56;;;;;;;;;;;;;;;18.09;100.00;101174.59;4937972;28;19942;-79
2023/08/29 09:16:42;;;;;;;;;;;;;;;18.11;100.00;101174.47;4989746;28;19930;-79
2023/08/29 09:19:29;;;;;;;;;;;;;;;18.10;100.00;101175.44;4977281;28;19930;-79
2023/08/29 09:22:14;;;;;;;;;;;;;;;18.08;100.00;101180.91;4942400;28;19992;-77
2023/08/29 09:25:03;;;;;;;;;;;;;;;18.04;100.00;101192.81;4939349;28;19973;-77
2023/08/29 09:27:49;;;;;;;;;;;;;;;18.05;100.00;101191.88;4939377;28;19936;-78
2023/08/29 09:30:36;;;;;;;;;;;;;;;18.07;100.00;101179.22;4938944;28;19937;-78
2023/08/29 09:33:22;;;;;;;;;;;;;;;18.08;100.00;101185.44;4952897;28;19926;-78
2023/08/29 09:36:08;;;;;;;;;;;;;;;18.10;100.00;101184.38;4944555;28;20522;-79
2023/08/29 09:38:53;;;;;;;;;;;;;;;18.14;100.00;101187.66;4946833;28;19926;-80
2023/08/29 09:41:42;;;;;;;;;;;;;;;18.21;100.00;101183.59;4998073;28;19980;-79
2023/08/29 09:44:28;;;;;;;;;;;;;;;18.23;100.00;101176.28;4987014;28;20582;-80
2023/08/29 09:47:15;;;;;;;;;;;;;;;18.27;100.00;101175.09;4936667;28;19930;-80
2023/08/29 09:50:01;;;;;;;;;;;;;;;18.31;100.00;101181.94;4997242;28;20392;-78
2023/08/29 09:52:47;;;;;;;;;;;;;;;18.37;100.00;101182.44;4982066;28;20429;-79
2023/08/29 09:55:48;;;;;;;;;;;;;;;18.38;100.00;101182.34;4975614;28;19942;-78
2023/08/29 09:58:33;;;;;;;;;;;;;;;18.40;100.00;101179.53;4939640;28;19931;-78
2023/08/29 10:01:20;;;;;;;;;;;;;;;18.44;100.00;101181.03;4935098;28;20880;-79
2023/08/29 10:04:09;;;;;;;;;;;;;;;18.47;100.00;101186.19;4997816;28;19929;-79
2023/08/29 10:06:55;;;;;;;;;;;;;;;18.54;100.00;101178.53;4906277;28;19927;-79
2023/08/29 10:09:41;;;;;;;;;;;;;;;18.64;100.00;101165.28;4925061;28;19988;-79
2023/08/29 10:12:27;;;;;;;;;;;;;;;18.77;100.00;101168.75;4940383;28;21712;-79
2023/08/29 10:15:13;;;;;;;;;;;;;;;18.87;100.00;101164.41;4936249;28;19951;-80
2023/08/29 10:17:58;;;;;;;;;;;;;;;18.92;100.00;101163.22;4939654;28;20324;-80
2023/08/29 10:20:44;;;;;;;;;;;;;;;18.97;100.00;101169.91;4944212;28;20044;-79
2023/08/29 10:23:33;;;;;;;;;;;;;;;18.96;100.00;101164.69;4953885;28;19930;-80
2023/08/29 10:26:19;;;;;;;;;;;;;;;18.95;100.00;101160.31;4956950;28;20312;-80
2023/08/29 10:29:05;;;;;;;;;;;;;;;18.92;100.00;101155.16;4936129;28;19948;-80
2023/08/29 10:31:50;;;;;;;;;;;;;;;18.89;100.00;101155.41;4934879;28;20327;-81
2023/08/29 10:34:36;;;;;;;;;;;;;;;18.87;100.00;101152.84;4952818;28;20256;-79
2023/08/29 10:37:22;;;;;;;;;;;;;;;18.85;100.00;101149.41;4935233;28;19930;-80
2023/08/29 10:40:11;;;;;;;;;;;;;;;18.85;100.00;101146.75;4960930;28;19930;-80
2023/08/29 10:42:59;;;;;;;;;;;;;;;18.88;100.00;101143.81;4958599;28;19934;-79
2023/08/29 10:45:53;;;;;;;;;;;;;;;18.94;100.00;101132.63;4958100;28;19933;-80
2023/08/29 10:48:43;;;;;;;;;;;;;;;18.97;100.00;101135.06;4962448;28;20066;-81
2023/08/29 10:51:29;;;;;;;;;;;;;;;19.02;100.00;101142.81;4964162;28;19925;-87
2023/08/29 10:54:15;;;;;;;;;;;;;;;19.09;100.00;101144.03;4942282;28;19940;-87
2023/08/29 10:57:00;;;;;;;;;;;;;;;19.21;100.00;101136.00;4965932;28;19934;-86
2023/08/29 10:59:46;;;;;;;;;;;;;;;19.32;100.00;101135.16;4963864;28;20561;-86
2023/08/29 11:02:32;;;;;;;;;;;;;;;19.45;100.00;101132.38;4946530;28;19930;-87
2023/08/29 11:05:19;;;;;;;;;;;;;;;19.52;100.00;101145.16;4963310;28;19934;-85
2023/08/29 11:08:31;;;;;;;;;;;;;;;19.49;100.00;101141.88;4945533;28;20484;-86
2023/08/29 11:11:18;;;;;;;;;;;;;;;19.43;100.00;101129.81;4963838;28;20324;-86
2023/08/29 11:14:07;;;;;;;;;;;;;;;19.41;100.00;101131.75;4932101;28;20430;-88
2023/08/29 11:17:22;;;;;;;;;;;;;;;19.44;100.00;101130.66;4947378;28;19933;-85
2023/08/29 11:20:08;;;;;;;;;;;;;;;19.48;100.00;101122.25;4972096;28;19937;-86
2023/08/29 11:22:54;;;;;;;;;;;;;;;19.56;100.00;101118.97;4935788;28;19930;-86
2023/08/29 11:25:39;;;;;;;;;;;;;;;19.65;100.00;101122.72;4950443;28;19934;-85
2023/08/29 11:28:25;;;;;;;;;;;;;;;19.72;100.00;101110.50;4941050;28;20021;-87
2023/08/29 11:31:12;;;;;;;;;;;;;;;19.81;100.00;101116.97;4940122;28;19934;-87
2023/08/29 11:33:57;;;;;;;;;;;;;;;19.78;100.00;101118.06;4946885;28;19929;-87
2023/08/29 11:36:48;;;;;;;;;;;;;;;19.70;99.85;101119.66;4940890;28;20278;-88
2023/08/29 11:39:36;;;;;;;;;;;;;;;19.61;96.30;101114.06;4929558;28;20056;-87
2023/08/29 11:42:22;;;;;;;;;;;;;;;19.53;98.96;101111.13;4947750;28;20407;-88
2023/08/29 11:45:08;;;;;;;;;;;;;;;19.41;100.00;101105.75;4957174;28;19945;-87
2023/08/29 11:47:54;;;;;;;;;;;;;;;19.50;100.00;101104.19;4943141;27;19934;-87
2023/08/29 11:50:39;;;;;;;;;;;;;;;19.70;100.00;101104.41;4936755;28;19968;-85
2023/08/29 11:53:31;;;;;;;;;;;;;;;19.84;100.00;101108.69;4961095;28;19930;-88
2023/08/29 11:56:17;;;;;;;;;;;;;;;19.88;100.00;101101.22;4925866;28;20628;-87
2023/08/29 11:59:02;;;;;;;;;;;;;;;19.95;98.83;101102.47;4944040;28;20182;-90
2023/08/29 12:01:48;;;;;;;;;;;;;;;19.92;99.26;101113.41;4947315;28;19944;-87
2023/08/29 12:04:37;;;;;;;;;;;;;;;20.05;100.00;101102.56;4928174;28;19930;-86
2023/08/29 12:07:32;;;;;;;;;;;;;;;20.18;100.00;101108.66;4948513;28;20024;-84
2023/08/29 12:10:19;;;;;;;;;;;;;;;20.20;96.97;101106.69;4944178;28;20015;-85
2023/08/29 12:13:14;;;;;;;;;;;;;;;20.24;96.18;101109.09;4955233;28;19933;-87
2023/08/29 12:16:02;;;;;;;;;;;;;;;20.34;97.69;101102.00;4933853;28;20788;-86
2023/08/29 12:18:49;;;;;;;;;;;;;;;20.48;97.64;101098.13;4965285;28;22213;-84
2023/08/29 12:21:36;;;;;;;;;;;;;;;20.51;94.82;101102.41;4954304;28;19937;-84
2023/08/29 12:24:21;;;;;;;;;;;;;;;20.52;96.13;101096.91;4953148;28;20400;-84
2023/08/29 12:27:07;;;;;;;;;;;;;;;20.45;91.44;101095.72;4966122;28;19955;-86
2023/08/29 12:29:53;;;;;;;;;;;;;;;20.44;93.02;101100.22;4945302;28;19922;-84
2023/08/29 12:32:43;;;;;;;;;;;;;;;20.49;96.09;101100.72;4952764;28;20377;-85
2023/08/29 12:35:28;;;;;;;;;;;;;;;20.55;96.71;101090.44;4964829;28;20544;-84
2023/08/29 12:38:14;;;;;;;;;;;;;;;20.63;94.54;101086.13;4965102;28;20943;-84
2023/08/29 12:41:00;;;;;;;;;;;;;;;20.66;96.93;101094.91;4944998;28;19969;-86
2023/08/29 12:43:46;;;;;;;;;;;;;;;20.68;96.83;101104.53;4962187;28;19926;-86
2023/08/29 12:46:31;;;;;;;;;;;;;;;20.74;93.23;101095.97;4962448;28;19961;-83
2023/08/29 12:49:17;;;;;;;;;;;;;;;20.73;90.24;101091.56;4963673;28;19930;-84
2023/08/29 12:52:04;;;;;;;;;;;;;;;20.69;92.07;101086.59;4963090;28;19977;-86
2023/08/29 12:54:51;;;;;;;;;;;;;;;20.66;92.35;101081.44;4951398;28;19930;-88
2023/08/29 12:57:36;;;;;;;;;;;;;;;20.72;96.81;101079.09;4966086;28;20029;-85
2023/08/29 13:00:22;;;;;;;;;;;;;;;20.71;90.40;101085.44;4962481;28;20239;-85
2023/08/29 13:03:08;;;;;;;;;;;;;;;20.62;83.31;101081.72;4958151;28;19930;-83
2023/08/29 13:05:54;;;;;;;;;;;;;;;20.59;82.64;101078.44;4958882;28;19940;-83
2023/08/29 13:08:40;;;;;;;;;;;;;;;20.56;91.28;101070.63;4961186;28;20021;-85
2023/08/29 13:11:30;;;;;;;;;;;;;;;20.54;90.18;101078.81;4953367;28;20036;-88
2023/08/29 13:14:16;;;;;;;;;;;;;;;20.53;92.04;101069.03;4930678;28;19930;-88
2023/08/29 13:17:04;;;;;;;;;;;;;;;20.57;94.72;101066.94;4932939;28;20083;-88
2023/08/29 13:19:49;;;;;;;;;;;;;;;20.54;96.04;101059.97;4934381;28;19926;-87
2023/08/29 13:22:36;;;;;;;;;;;;;;;20.48;95.06;101058.66;4932501;28;20393;-85
2023/08/29 13:25:22;;;;;;;;;;;;;;;20.51;94.86;101054.00;4923740;28;19931;-85
2023/08/29 13:28:08;;;;;;;;;;;;;;;20.48;95.18;101066.75;4936797;28;20356;-86
2023/08/29 13:30:54;;;;;;;;;;;;;;;20.45;98.15;101061.63;4932020;28;19926;-86
2023/08/29 13:33:40;;;;;;;;;;;;;;;20.37;93.46;101056.03;4935129;28;19933;-84
2023/08/29 13:36:26;;;;;;;;;;;;;;;20.35;95.85;101055.31;4924299;28;20374;-87
2023/08/29 13:39:12;;;;;;;;;;;;;;;20.27;94.34;101052.41;4932166;28;19970;-86
2023/08/29 13:41:58;;;;;;;;;;;;;;;20.19;93.63;101053.91;4932730;28;19945;-86
2023/08/29 13:44:43;;;;;;;;;;;;;;;20.16;96.26;101053.31;4931265;28;20361;-85
2023/08/29 13:47:29;;;;;;;;;;;;;;;20.12;97.45;101050.03;4935245;28;20340;-86
2023/08/29 13:50:15;;;;;;;;;;;;;;;20.05;93.74;101048.84;4911388;28;20572;-87
2023/08/29 13:53:00;;;;;;;;;;;;;;;20.00;94.70;101043.81;4932603;28;19933;-86
2023/08/29 13:55:48;;;;;;;;;;;;;;;19.97;95.73;101038.72;4931786;28;20463;-88
2023/08/29 13:58:35;;;;;;;;;;;;;;;19.95;95.68;101028.09;4922711;28;22256;-87
2023/08/29 14:01:21;;;;;;;;;;;;;;;19.96;95.29;101034.31;4930954;28;19932;-88
2023/08/29 14:04:06;;;;;;;;;;;;;;;20.01;94.00;101025.88;4938509;28;19938;-85
2023/08/29 14:06:52;;;;;;;;;;;;;;;20.00;91.66;101032.22;4929343;28;19934;-85